sensor_id;sensor_type;location;lat;lon;timestamp;P1;durP1;ratioP1;P2;durP2;ratioP2
74612;SDS011;63119;51.788;8.824;2023-12-14T00:02:25;2.77;;;1.60;;
74612;SDS011;63119;51.788;8.824;2023-12-14T00:04:50;3.80;;;2.30;;
74612;SDS011;63119;51.788;8.824;2023-12-14T00:07:15;3.93;;;2.30;;
74612;SDS011;63119;51.788;8.824;2023-12-14T00:09:41;2.55;;;1.73;;
74612;SDS011;63119;51.788;8.824;2023-12-14T00:12:06;3.33;;;1.80;;
74612;SDS011;63119;51.788;8.824;2023-12-14T00:14:31;5.13;;;2.63;;
74612;SDS011;63119;51.788;8.824;2023-12-14T00:16:57;3.67;;;2.00;;
74612;SDS011;63119;51.788;8.824;2023-12-14T00:19:24;2.55;;;1.52;;
74612;SDS011;63119;51.788;8.824;2023-12-14T00:21:49;2.35;;;1.42;;
74612;SDS011;63119;51.788;8.824;2023-12-14T00:24:15;4.27;;;1.70;;
74612;SDS011;63119;51.788;8.824;2023-12-14T00:26:40;3.00;;;1.50;;
74612;SDS011;63119;51.788;8.824;2023-12-14T00:29:05;2.77;;;1.30;;
74612;SDS011;63119;51.788;8.824;2023-12-14T00:31:30;2.33;;;1.67;;
74612;SDS011;63119;51.788;8.824;2023-12-14T00:33:56;3.55;;;1.80;;
74612;SDS011;63119;51.788;8.824;2023-12-14T00:36:21;4.13;;;2.00;;
74612;SDS011;63119;51.788;8.824;2023-12-14T00:38:46;3.47;;;1.83;;
74612;SDS011;63119;51.788;8.824;2023-12-14T00:57:47;8.60;;;4.55;;
74612;SDS011;63119;51.788;8.824;2023-12-14T01:00:13;9.07;;;4.43;;
74612;SDS011;63119;51.788;8.824;2023-12-14T01:02:38;10.85;;;5.15;;
74612;SDS011;63119;51.788;8.824;2023-12-14T01:05:04;8.17;;;4.73;;
74612;SDS011;63119;51.788;8.824;2023-12-14T01:07:29;9.27;;;5.22;;
74612;SDS011;63119;51.788;8.824;2023-12-14T01:09:55;11.13;;;5.57;;
74612;SDS011;63119;51.788;8.824;2023-12-14T01:12:20;11.33;;;5.00;;
74612;SDS011;63119;51.788;8.824;2023-12-14T01:14:45;10.57;;;5.60;;
74612;SDS011;63119;51.788;8.824;2023-12-14T01:17:10;10.60;;;6.03;;
74612;SDS011;63119;51.788;8.824;2023-12-14T01:19:39;12.13;;;6.37;;
74612;SDS011;63119;51.788;8.824;2023-12-14T01:22:04;10.45;;;6.05;;
74612;SDS011;63119;51.788;8.824;2023-12-14T01:24:30;11.97;;;5.73;;
74612;SDS011;63119;51.788;8.824;2023-12-14T01:26:55;10.20;;;5.83;;
74612;SDS011;63119;51.788;8.824;2023-12-14T01:29:20;10.10;;;5.63;;
74612;SDS011;63119;51.788;8.824;2023-12-14T01:31:45;10.50;;;5.77;;
74612;SDS011;63119;51.788;8.824;2023-12-14T01:34:11;11.83;;;5.97;;
74612;SDS011;63119;51.788;8.824;2023-12-14T01:36:37;12.57;;;5.95;;
74612;SDS011;63119;51.788;8.824;2023-12-14T01:39:02;10.03;;;5.60;;
74612;SDS011;63119;51.788;8.824;2023-12-14T01:41:27;12.70;;;5.93;;
74612;SDS011;63119;51.788;8.824;2023-12-14T01:43:53;10.30;;;5.37;;
74612;SDS011;63119;51.788;8.824;2023-12-14T01:46:18;10.87;;;5.80;;
74612;SDS011;63119;51.788;8.824;2023-12-14T01:48:43;12.20;;;6.17;;
74612;SDS011;63119;51.788;8.824;2023-12-14T01:51:08;10.87;;;5.23;;
74612;SDS011;63119;51.788;8.824;2023-12-14T01:53:34;11.60;;;5.93;;
74612;SDS011;63119;51.788;8.824;2023-12-14T01:55:59;10.00;;;5.33;;
74612;SDS011;63119;51.788;8.824;2023-12-14T01:58:24;10.27;;;5.10;;
74612;SDS011;63119;51.788;8.824;2023-12-14T02:03:43;9.55;;;4.95;;
74612;SDS011;63119;51.788;8.824;2023-12-14T02:06:10;9.38;;;5.05;;
74612;SDS011;63119;51.788;8.824;2023-12-14T02:08:35;10.17;;;4.60;;
74612;SDS011;63119;51.788;8.824;2023-12-14T02:11:00;8.95;;;5.00;;
74612;SDS011;63119;51.788;8.824;2023-12-14T02:13:25;10.97;;;5.37;;
74612;SDS011;63119;51.788;8.824;2023-12-14T02:15:51;9.02;;;4.95;;
74612;SDS011;63119;51.788;8.824;2023-12-14T02:18:18;9.68;;;4.75;;
74612;SDS011;63119;51.788;8.824;2023-12-14T02:20:43;8.03;;;4.30;;
74612;SDS011;63119;51.788;8.824;2023-12-14T02:23:09;7.60;;;3.73;;
74612;SDS011;63119;51.788;8.824;2023-12-14T02:25:34;6.23;;;3.33;;
74612;SDS011;63119;51.788;8.824;2023-12-14T02:27:59;5.97;;;3.20;;
74612;SDS011;63119;51.788;8.824;2023-12-14T02:30:24;6.03;;;3.50;;
74612;SDS011;63119;51.788;8.824;2023-12-14T02:32:50;6.23;;;3.50;;
74612;SDS011;63119;51.788;8.824;2023-12-14T02:35:15;6.43;;;3.47;;
74612;SDS011;63119;51.788;8.824;2023-12-14T02:37:40;7.90;;;3.77;;
74612;SDS011;63119;51.788;8.824;2023-12-14T02:40:06;5.97;;;3.20;;
74612;SDS011;63119;51.788;8.824;2023-12-14T02:42:32;6.00;;;2.95;;
74612;SDS011;63119;51.788;8.824;2023-12-14T02:44:57;4.13;;;2.55;;
74612;SDS011;63119;51.788;8.824;2023-12-14T02:47:22;4.37;;;2.50;;
74612;SDS011;63119;51.788;8.824;2023-12-14T02:49:48;3.33;;;2.10;;
74612;SDS011;63119;51.788;8.824;2023-12-14T02:52:13;3.97;;;2.47;;
74612;SDS011;63119;51.788;8.824;2023-12-14T02:54:39;4.32;;;2.30;;
74612;SDS011;63119;51.788;8.824;2023-12-14T02:57:04;5.18;;;2.53;;
74612;SDS011;63119;51.788;8.824;2023-12-14T02:59:30;3.75;;;2.50;;
74612;SDS011;63119;51.788;8.824;2023-12-14T03:01:55;4.57;;;2.63;;
74612;SDS011;63119;51.788;8.824;2023-12-14T03:04:20;5.07;;;2.90;;
74612;SDS011;63119;51.788;8.824;2023-12-14T03:06:46;4.83;;;2.70;;
74612;SDS011;63119;51.788;8.824;2023-12-14T03:09:11;5.13;;;3.20;;
74612;SDS011;63119;51.788;8.824;2023-12-14T03:11:36;5.07;;;2.80;;
74612;SDS011;63119;51.788;8.824;2023-12-14T03:14:01;5.13;;;2.50;;
74612;SDS011;63119;51.788;8.824;2023-12-14T03:16:27;5.73;;;3.07;;
74612;SDS011;63119;51.788;8.824;2023-12-14T03:18:52;5.97;;;3.00;;
74612;SDS011;63119;51.788;8.824;2023-12-14T03:21:18;6.22;;;2.92;;
74612;SDS011;63119;51.788;8.824;2023-12-14T03:23:44;7.78;;;3.20;;
74612;SDS011;63119;51.788;8.824;2023-12-14T03:26:10;4.85;;;3.00;;
74612;SDS011;63119;51.788;8.824;2023-12-14T03:28:35;4.87;;;3.27;;
74612;SDS011;63119;51.788;8.824;2023-12-14T03:31:00;6.83;;;3.47;;
74612;SDS011;63119;51.788;8.824;2023-12-14T03:33:26;5.47;;;3.38;;
74612;SDS011;63119;51.788;8.824;2023-12-14T03:35:51;7.67;;;3.57;;
74612;SDS011;63119;51.788;8.824;2023-12-14T03:38:16;6.60;;;3.00;;
74612;SDS011;63119;51.788;8.824;2023-12-14T03:40:41;6.43;;;3.43;;
74612;SDS011;63119;51.788;8.824;2023-12-14T03:43:07;5.50;;;2.80;;
74612;SDS011;63119;51.788;8.824;2023-12-14T03:45:32;4.83;;;2.73;;
74612;SDS011;63119;51.788;8.824;2023-12-14T03:47:57;5.85;;;3.28;;
74612;SDS011;63119;51.788;8.824;2023-12-14T03:50:23;5.38;;;3.08;;
74612;SDS011;63119;51.788;8.824;2023-12-14T03:52:48;7.50;;;3.58;;
74612;SDS011;63119;51.788;8.824;2023-12-14T03:55:16;5.78;;;2.78;;
74612;SDS011;63119;51.788;8.824;2023-12-14T04:04:24;4.70;;;2.80;;
74612;SDS011;63119;51.788;8.824;2023-12-14T04:06:50;4.80;;;3.30;;
74612;SDS011;63119;51.788;8.824;2023-12-14T04:09:16;5.55;;;3.15;;
74612;SDS011;63119;51.788;8.824;2023-12-14T04:11:41;5.20;;;3.23;;
74612;SDS011;63119;51.788;8.824;2023-12-14T04:14:06;5.27;;;3.00;;
74612;SDS011;63119;51.788;8.824;2023-12-14T04:16:32;4.23;;;2.93;;
74612;SDS011;63119;51.788;8.824;2023-12-14T04:18:57;6.97;;;3.23;;
74612;SDS011;63119;51.788;8.824;2023-12-14T04:21:22;5.07;;;2.77;;
74612;SDS011;63119;51.788;8.824;2023-12-14T04:23:48;5.93;;;2.90;;
74612;SDS011;63119;51.788;8.824;2023-12-14T04:26:13;6.07;;;3.10;;
74612;SDS011;63119;51.788;8.824;2023-12-14T04:28:39;6.30;;;3.53;;
74612;SDS011;63119;51.788;8.824;2023-12-14T04:31:04;4.70;;;2.97;;
74612;SDS011;63119;51.788;8.824;2023-12-14T04:33:29;6.00;;;3.30;;
74612;SDS011;63119;51.788;8.824;2023-12-14T04:35:56;5.25;;;3.10;;
74612;SDS011;63119;51.788;8.824;2023-12-14T04:38:22;5.83;;;3.20;;
74612;SDS011;63119;51.788;8.824;2023-12-14T04:40:47;5.77;;;3.17;;
74612;SDS011;63119;51.788;8.824;2023-12-14T04:43:12;6.47;;;3.37;;
74612;SDS011;63119;51.788;8.824;2023-12-14T04:45:37;6.73;;;3.40;;
74612;SDS011;63119;51.788;8.824;2023-12-14T04:48:03;6.27;;;3.27;;
74612;SDS011;63119;51.788;8.824;2023-12-14T04:50:28;9.37;;;5.83;;
74612;SDS011;63119;51.788;8.824;2023-12-14T04:52:53;6.87;;;3.17;;
74612;SDS011;63119;51.788;8.824;2023-12-14T04:55:18;6.20;;;3.37;;
74612;SDS011;63119;51.788;8.824;2023-12-14T04:57:44;6.40;;;3.53;;
74612;SDS011;63119;51.788;8.824;2023-12-14T05:00:11;6.18;;;3.22;;
74612;SDS011;63119;51.788;8.824;2023-12-14T05:02:37;8.45;;;5.05;;
74612;SDS011;63119;51.788;8.824;2023-12-14T05:05:02;7.00;;;4.33;;
74612;SDS011;63119;51.788;8.824;2023-12-14T05:07:27;8.90;;;5.50;;
74612;SDS011;63119;51.788;8.824;2023-12-14T05:09:55;8.55;;;4.90;;
74612;SDS011;63119;51.788;8.824;2023-12-14T05:12:20;5.93;;;3.93;;
74612;SDS011;63119;51.788;8.824;2023-12-14T05:14:45;7.63;;;4.67;;
74612;SDS011;63119;51.788;8.824;2023-12-14T05:17:10;8.00;;;4.40;;
74612;SDS011;63119;51.788;8.824;2023-12-14T05:19:36;6.50;;;3.75;;
74612;SDS011;63119;51.788;8.824;2023-12-14T05:22:02;7.43;;;3.85;;
74612;SDS011;63119;51.788;8.824;2023-12-14T05:24:27;6.67;;;3.67;;
74612;SDS011;63119;51.788;8.824;2023-12-14T05:26:52;5.27;;;3.20;;
74612;SDS011;63119;51.788;8.824;2023-12-14T05:29:17;5.53;;;3.33;;
74612;SDS011;63119;51.788;8.824;2023-12-14T05:31:43;5.83;;;3.53;;
74612;SDS011;63119;51.788;8.824;2023-12-14T05:34:08;5.33;;;3.57;;
74612;SDS011;63119;51.788;8.824;2023-12-14T05:36:33;6.67;;;3.80;;
74612;SDS011;63119;51.788;8.824;2023-12-14T05:38:58;5.70;;;3.23;;
74612;SDS011;63119;51.788;8.824;2023-12-14T05:41:24;5.50;;;3.50;;
74612;SDS011;63119;51.788;8.824;2023-12-14T05:43:49;5.57;;;3.20;;
74612;SDS011;63119;51.788;8.824;2023-12-14T05:46:21;5.23;;;3.07;;
74612;SDS011;63119;51.788;8.824;2023-12-14T05:48:47;6.07;;;3.17;;
74612;SDS011;63119;51.788;8.824;2023-12-14T05:51:25;6.88;;;3.58;;
74612;SDS011;63119;51.788;8.824;2023-12-14T05:53:51;6.03;;;3.83;;
74612;SDS011;63119;51.788;8.824;2023-12-14T05:56:16;5.27;;;3.40;;
74612;SDS011;63119;51.788;8.824;2023-12-14T05:58:42;7.43;;;3.47;;
74612;SDS011;63119;51.788;8.824;2023-12-14T06:01:07;8.00;;;3.90;;
74612;SDS011;63119;51.788;8.824;2023-12-14T06:03:33;5.72;;;3.40;;
74612;SDS011;63119;51.788;8.824;2023-12-14T06:05:58;6.77;;;3.47;;
74612;SDS011;63119;51.788;8.824;2023-12-14T06:08:23;7.13;;;3.97;;
74612;SDS011;63119;51.788;8.824;2023-12-14T06:10:49;7.10;;;3.97;;
74612;SDS011;63119;51.788;8.824;2023-12-14T06:13:14;5.90;;;3.57;;
74612;SDS011;63119;51.788;8.824;2023-12-14T06:15:39;5.10;;;3.50;;
74612;SDS011;63119;51.788;8.824;2023-12-14T06:18:04;6.40;;;3.93;;
74612;SDS011;63119;51.788;8.824;2023-12-14T06:20:30;8.23;;;4.15;;
74612;SDS011;63119;51.788;8.824;2023-12-14T06:22:55;5.23;;;3.23;;
74612;SDS011;63119;51.788;8.824;2023-12-14T06:25:20;7.43;;;4.00;;
74612;SDS011;63119;51.788;8.824;2023-12-14T06:27:45;6.10;;;3.93;;
74612;SDS011;63119;51.788;8.824;2023-12-14T06:30:11;8.27;;;3.77;;
74612;SDS011;63119;51.788;8.824;2023-12-14T06:32:36;5.82;;;3.50;;
74612;SDS011;63119;51.788;8.824;2023-12-14T06:35:02;6.70;;;3.90;;
74612;SDS011;63119;51.788;8.824;2023-12-14T06:37:27;7.22;;;3.92;;
74612;SDS011;63119;51.788;8.824;2023-12-14T06:39:52;7.87;;;4.03;;
74612;SDS011;63119;51.788;8.824;2023-12-14T06:42:18;8.03;;;4.80;;
74612;SDS011;63119;51.788;8.824;2023-12-14T06:44:43;7.33;;;4.00;;
74612;SDS011;63119;51.788;8.824;2023-12-14T06:47:08;8.00;;;4.63;;
74612;SDS011;63119;51.788;8.824;2023-12-14T06:49:33;8.52;;;4.78;;
74612;SDS011;63119;51.788;8.824;2023-12-14T06:51:59;6.97;;;3.83;;
74612;SDS011;63119;51.788;8.824;2023-12-14T06:54:24;8.57;;;4.57;;
74612;SDS011;63119;51.788;8.824;2023-12-14T06:56:49;9.97;;;5.27;;
74612;SDS011;63119;51.788;8.824;2023-12-14T06:59:14;10.57;;;5.47;;
74612;SDS011;63119;51.788;8.824;2023-12-14T07:01:40;9.65;;;5.15;;
74612;SDS011;63119;51.788;8.824;2023-12-14T07:04:05;9.73;;;5.13;;
74612;SDS011;63119;51.788;8.824;2023-12-14T07:06:32;9.23;;;5.50;;
74612;SDS011;63119;51.788;8.824;2023-12-14T07:09:00;11.60;;;6.18;;
74612;SDS011;63119;51.788;8.824;2023-12-14T07:11:25;9.87;;;5.70;;
74612;SDS011;63119;51.788;8.824;2023-12-14T07:13:50;9.00;;;5.23;;
74612;SDS011;63119;51.788;8.824;2023-12-14T07:16:15;10.30;;;6.13;;
74612;SDS011;63119;51.788;8.824;2023-12-14T07:18:42;12.07;;;6.15;;
74612;SDS011;63119;51.788;8.824;2023-12-14T07:21:09;12.73;;;6.22;;
74612;SDS011;63119;51.788;8.824;2023-12-14T07:23:35;12.57;;;6.00;;
74612;SDS011;63119;51.788;8.824;2023-12-14T07:26:00;12.30;;;6.47;;
74612;SDS011;63119;51.788;8.824;2023-12-14T07:28:26;11.32;;;6.00;;
74612;SDS011;63119;51.788;8.824;2023-12-14T07:30:51;13.18;;;6.22;;
74612;SDS011;63119;51.788;8.824;2023-12-14T07:33:16;11.53;;;6.27;;
74612;SDS011;63119;51.788;8.824;2023-12-14T07:35:42;11.53;;;6.20;;
74612;SDS011;63119;51.788;8.824;2023-12-14T07:38:08;11.88;;;6.22;;
74612;SDS011;63119;51.788;8.824;2023-12-14T07:40:34;9.98;;;5.32;;
74612;SDS011;63119;51.788;8.824;2023-12-14T07:42:59;10.23;;;6.43;;
74612;SDS011;63119;51.788;8.824;2023-12-14T07:45:25;10.87;;;5.93;;
74612;SDS011;63119;51.788;8.824;2023-12-14T07:47:50;10.77;;;5.27;;
74612;SDS011;63119;51.788;8.824;2023-12-14T07:50:15;10.67;;;5.77;;
74612;SDS011;63119;51.788;8.824;2023-12-14T07:52:41;10.38;;;5.53;;
74612;SDS011;63119;51.788;8.824;2023-12-14T07:55:06;10.77;;;6.43;;
74612;SDS011;63119;51.788;8.824;2023-12-14T07:57:32;11.07;;;6.10;;
74612;SDS011;63119;51.788;8.824;2023-12-14T07:59:57;11.03;;;6.17;;
74612;SDS011;63119;51.788;8.824;2023-12-14T08:02:23;10.73;;;6.00;;
74612;SDS011;63119;51.788;8.824;2023-12-14T08:04:48;9.23;;;5.22;;
74612;SDS011;63119;51.788;8.824;2023-12-14T08:07:13;12.03;;;5.93;;
74612;SDS011;63119;51.788;8.824;2023-12-14T08:09:38;9.13;;;5.63;;
74612;SDS011;63119;51.788;8.824;2023-12-14T08:12:04;8.80;;;5.20;;
74612;SDS011;63119;51.788;8.824;2023-12-14T08:14:31;6.85;;;4.53;;
74612;SDS011;63119;51.788;8.824;2023-12-14T08:17:03;8.80;;;5.07;;
74612;SDS011;63119;51.788;8.824;2023-12-14T08:21:54;6.97;;;4.13;;
74612;SDS011;63119;51.788;8.824;2023-12-14T08:24:19;6.80;;;3.87;;
74612;SDS011;63119;51.788;8.824;2023-12-14T08:26:44;6.20;;;3.67;;
74612;SDS011;63119;51.788;8.824;2023-12-14T08:29:09;7.77;;;4.13;;
74612;SDS011;63119;51.788;8.824;2023-12-14T08:31:35;5.53;;;3.97;;
74612;SDS011;63119;51.788;8.824;2023-12-14T08:34:00;7.00;;;4.20;;
74612;SDS011;63119;51.788;8.824;2023-12-14T08:36:25;6.30;;;4.10;;
74612;SDS011;63119;51.788;8.824;2023-12-14T08:38:51;6.13;;;4.03;;
74612;SDS011;63119;51.788;8.824;2023-12-14T08:41:16;6.67;;;4.00;;
74612;SDS011;63119;51.788;8.824;2023-12-14T08:43:41;6.83;;;3.90;;
74612;SDS011;63119;51.788;8.824;2023-12-14T08:46:07;6.77;;;4.07;;
74612;SDS011;63119;51.788;8.824;2023-12-14T08:48:32;6.10;;;3.70;;
74612;SDS011;63119;51.788;8.824;2023-12-14T08:50:58;6.32;;;3.80;;
74612;SDS011;63119;51.788;8.824;2023-12-14T08:53:23;10.40;;;4.87;;
74612;SDS011;63119;51.788;8.824;2023-12-14T08:55:48;6.57;;;4.40;;
74612;SDS011;63119;51.788;8.824;2023-12-14T08:58:13;6.97;;;3.97;;
74612;SDS011;63119;51.788;8.824;2023-12-14T09:00:39;8.70;;;4.13;;
74612;SDS011;63119;51.788;8.824;2023-12-14T09:03:04;7.45;;;4.40;;
74612;SDS011;63119;51.788;8.824;2023-12-14T09:05:29;6.07;;;4.33;;
74612;SDS011;63119;51.788;8.824;2023-12-14T09:07:54;8.83;;;4.77;;
74612;SDS011;63119;51.788;8.824;2023-12-14T09:10:21;7.13;;;4.57;;
74612;SDS011;63119;51.788;8.824;2023-12-14T09:12:47;9.48;;;5.70;;
74612;SDS011;63119;51.788;8.824;2023-12-14T09:15:13;7.93;;;5.25;;
74612;SDS011;63119;51.788;8.824;2023-12-14T09:17:40;7.72;;;5.07;;
74612;SDS011;63119;51.788;8.824;2023-12-14T09:20:07;8.82;;;5.28;;
74612;SDS011;63119;51.788;8.824;2023-12-14T09:22:33;10.57;;;5.72;;
74612;SDS011;63119;51.788;8.824;2023-12-14T09:24:58;9.77;;;5.43;;
74612;SDS011;63119;51.788;8.824;2023-12-14T09:27:23;9.83;;;5.73;;
74612;SDS011;63119;51.788;8.824;2023-12-14T09:29:48;10.83;;;6.33;;
74612;SDS011;63119;51.788;8.824;2023-12-14T09:32:14;11.67;;;6.27;;
74612;SDS011;63119;51.788;8.824;2023-12-14T09:34:39;12.83;;;6.27;;
74612;SDS011;63119;51.788;8.824;2023-12-14T09:37:04;12.17;;;6.63;;
74612;SDS011;63119;51.788;8.824;2023-12-14T09:39:29;12.80;;;6.40;;
74612;SDS011;63119;51.788;8.824;2023-12-14T09:42:04;15.07;;;6.70;;
74612;SDS011;63119;51.788;8.824;2023-12-14T09:44:31;13.35;;;6.78;;
74612;SDS011;63119;51.788;8.824;2023-12-14T09:46:57;10.73;;;6.72;;
74612;SDS011;63119;51.788;8.824;2023-12-14T09:49:25;11.60;;;6.50;;
74612;SDS011;63119;51.788;8.824;2023-12-14T09:51:54;9.95;;;6.25;;
74612;SDS011;63119;51.788;8.824;2023-12-14T09:54:19;10.85;;;6.22;;
74612;SDS011;63119;51.788;8.824;2023-12-14T09:56:45;12.70;;;6.45;;
74612;SDS011;63119;51.788;8.824;2023-12-14T09:59:12;10.23;;;6.35;;
74612;SDS011;63119;51.788;8.824;2023-12-14T10:01:37;11.68;;;6.22;;
74612;SDS011;63119;51.788;8.824;2023-12-14T10:04:09;11.93;;;6.10;;
74612;SDS011;63119;51.788;8.824;2023-12-14T10:06:36;12.07;;;6.03;;
74612;SDS011;63119;51.788;8.824;2023-12-14T10:09:03;12.55;;;6.35;;
74612;SDS011;63119;51.788;8.824;2023-12-14T10:11:29;14.35;;;6.95;;
74612;SDS011;63119;51.788;8.824;2023-12-14T10:13:54;12.00;;;6.70;;
74612;SDS011;63119;51.788;8.824;2023-12-14T10:16:30;11.77;;;6.20;;
74612;SDS011;63119;51.788;8.824;2023-12-14T10:18:57;12.13;;;6.53;;
74612;SDS011;63119;51.788;8.824;2023-12-14T10:21:24;13.05;;;6.32;;
74612;SDS011;63119;51.788;8.824;2023-12-14T10:23:50;10.45;;;6.03;;
74612;SDS011;63119;51.788;8.824;2023-12-14T10:26:16;12.10;;;6.20;;
74612;SDS011;63119;51.788;8.824;2023-12-14T10:28:41;10.20;;;5.90;;
74612;SDS011;63119;51.788;8.824;2023-12-14T10:31:06;10.07;;;5.23;;
74612;SDS011;63119;51.788;8.824;2023-12-14T10:33:33;10.90;;;5.72;;
74612;SDS011;63119;51.788;8.824;2023-12-14T10:35:58;9.53;;;4.97;;
74612;SDS011;63119;51.788;8.824;2023-12-14T10:38:25;10.18;;;5.40;;
74612;SDS011;63119;51.788;8.824;2023-12-14T10:40:51;10.48;;;5.68;;
74612;SDS011;63119;51.788;8.824;2023-12-14T10:43:18;8.60;;;4.85;;
74612;SDS011;63119;51.788;8.824;2023-12-14T10:45:44;9.20;;;4.88;;
74612;SDS011;63119;51.788;8.824;2023-12-14T10:48:12;9.73;;;5.18;;
74612;SDS011;63119;51.788;8.824;2023-12-14T10:50:38;10.00;;;4.85;;
74612;SDS011;63119;51.788;8.824;2023-12-14T10:53:07;10.20;;;5.40;;
74612;SDS011;63119;51.788;8.824;2023-12-14T10:55:36;10.40;;;5.20;;
74612;SDS011;63119;51.788;8.824;2023-12-14T10:58:03;9.13;;;4.95;;
74612;SDS011;63119;51.788;8.824;2023-12-14T11:00:30;8.75;;;5.13;;
74612;SDS011;63119;51.788;8.824;2023-12-14T11:02:56;10.75;;;5.65;;
74612;SDS011;63119;51.788;8.824;2023-12-14T11:05:22;11.27;;;5.85;;
74612;SDS011;63119;51.788;8.824;2023-12-14T11:07:54;9.70;;;5.75;;
74612;SDS011;63119;51.788;8.824;2023-12-14T11:10:23;12.45;;;6.85;;
74612;SDS011;63119;51.788;8.824;2023-12-14T11:12:54;8.07;;;5.07;;
74612;SDS011;63119;51.788;8.824;2023-12-14T11:15:28;9.02;;;5.63;;
74612;SDS011;63119;51.788;8.824;2023-12-14T11:18:19;10.18;;;6.35;;
74612;SDS011;63119;51.788;8.824;2023-12-14T11:23:14;9.82;;;6.03;;
74612;SDS011;63119;51.788;8.824;2023-12-14T11:25:47;12.75;;;7.15;;
74612;SDS011;63119;51.788;8.824;2023-12-14T11:28:13;13.77;;;8.32;;
74612;SDS011;63119;51.788;8.824;2023-12-14T11:30:38;12.63;;;7.00;;
74612;SDS011;63119;51.788;8.824;2023-12-14T11:33:04;9.90;;;5.40;;
74612;SDS011;63119;51.788;8.824;2023-12-14T11:35:29;10.20;;;5.63;;
74612;SDS011;63119;51.788;8.824;2023-12-14T11:37:55;9.23;;;5.75;;
74612;SDS011;63119;51.788;8.824;2023-12-14T11:40:22;9.07;;;5.57;;
74612;SDS011;63119;51.788;8.824;2023-12-14T11:43:00;8.95;;;5.85;;
74612;SDS011;63119;51.788;8.824;2023-12-14T11:45:31;9.77;;;6.07;;
74612;SDS011;63119;51.788;8.824;2023-12-14T11:47:57;10.10;;;5.70;;
74612;SDS011;63119;51.788;8.824;2023-12-14T11:50:22;10.13;;;5.80;;
74612;SDS011;63119;51.788;8.824;2023-12-14T11:52:48;9.65;;;6.25;;
74612;SDS011;63119;51.788;8.824;2023-12-14T11:55:14;10.57;;;6.78;;
74612;SDS011;63119;51.788;8.824;2023-12-14T11:57:45;9.43;;;5.43;;
74612;SDS011;63119;51.788;8.824;2023-12-14T12:00:11;8.57;;;5.22;;
74612;SDS011;63119;51.788;8.824;2023-12-14T12:02:37;9.88;;;5.30;;
74612;SDS011;63119;51.788;8.824;2023-12-14T12:05:03;16.38;;;9.70;;
74612;SDS011;63119;51.788;8.824;2023-12-14T12:07:28;10.25;;;6.95;;
74612;SDS011;63119;51.788;8.824;2023-12-14T12:09:53;8.60;;;5.63;;
74612;SDS011;63119;51.788;8.824;2023-12-14T12:12:19;7.93;;;4.73;;
74612;SDS011;63119;51.788;8.824;2023-12-14T12:14:44;9.30;;;5.43;;
74612;SDS011;63119;51.788;8.824;2023-12-14T12:17:09;7.83;;;5.30;;
74612;SDS011;63119;51.788;8.824;2023-12-14T12:19:35;9.23;;;5.80;;
74612;SDS011;63119;51.788;8.824;2023-12-14T12:22:02;9.63;;;5.57;;
74612;SDS011;63119;51.788;8.824;2023-12-14T12:24:28;8.70;;;5.13;;
74612;SDS011;63119;51.788;8.824;2023-12-14T12:26:53;9.10;;;5.40;;
74612;SDS011;63119;51.788;8.824;2023-12-14T12:29:19;9.02;;;5.68;;
74612;SDS011;63119;51.788;8.824;2023-12-14T12:31:44;8.10;;;5.10;;
74612;SDS011;63119;51.788;8.824;2023-12-14T12:34:10;10.03;;;5.70;;
74612;SDS011;63119;51.788;8.824;2023-12-14T12:36:36;8.95;;;5.47;;
74612;SDS011;63119;51.788;8.824;2023-12-14T12:39:01;7.70;;;5.03;;
74612;SDS011;63119;51.788;8.824;2023-12-14T12:41:28;9.90;;;5.60;;
74612;SDS011;63119;51.788;8.824;2023-12-14T12:43:53;11.00;;;5.47;;
74612;SDS011;63119;51.788;8.824;2023-12-14T12:46:18;7.73;;;5.37;;
74612;SDS011;63119;51.788;8.824;2023-12-14T12:48:44;7.83;;;5.57;;
74612;SDS011;63119;51.788;8.824;2023-12-14T12:51:09;10.47;;;5.93;;
74612;SDS011;63119;51.788;8.824;2023-12-14T12:53:34;9.50;;;5.97;;
74612;SDS011;63119;51.788;8.824;2023-12-14T12:55:59;8.70;;;5.53;;
74612;SDS011;63119;51.788;8.824;2023-12-14T12:58:24;9.03;;;6.00;;
74612;SDS011;63119;51.788;8.824;2023-12-14T13:00:50;10.03;;;6.00;;
74612;SDS011;63119;51.788;8.824;2023-12-14T13:03:15;9.70;;;5.90;;
74612;SDS011;63119;51.788;8.824;2023-12-14T13:05:40;9.80;;;6.33;;
74612;SDS011;63119;51.788;8.824;2023-12-14T13:08:07;9.45;;;5.78;;
74612;SDS011;63119;51.788;8.824;2023-12-14T13:10:32;9.65;;;5.53;;
74612;SDS011;63119;51.788;8.824;2023-12-14T13:12:57;10.83;;;6.33;;
74612;SDS011;63119;51.788;8.824;2023-12-14T13:15:23;11.17;;;5.97;;
74612;SDS011;63119;51.788;8.824;2023-12-14T13:17:52;11.10;;;6.25;;
74612;SDS011;63119;51.788;8.824;2023-12-14T13:20:17;10.83;;;5.90;;
74612;SDS011;63119;51.788;8.824;2023-12-14T13:22:43;10.07;;;6.20;;
74612;SDS011;63119;51.788;8.824;2023-12-14T13:25:08;11.05;;;6.60;;
74612;SDS011;63119;51.788;8.824;2023-12-14T13:27:34;13.73;;;7.20;;
74612;SDS011;63119;51.788;8.824;2023-12-14T13:30:01;13.00;;;7.00;;
74612;SDS011;63119;51.788;8.824;2023-12-14T13:32:26;13.32;;;7.75;;
74612;SDS011;63119;51.788;8.824;2023-12-14T13:34:51;19.23;;;11.63;;
74612;SDS011;63119;51.788;8.824;2023-12-14T13:37:17;15.60;;;9.07;;
74612;SDS011;63119;51.788;8.824;2023-12-14T13:39:42;15.93;;;9.77;;
74612;SDS011;63119;51.788;8.824;2023-12-14T13:42:08;18.02;;;9.80;;
74612;SDS011;63119;51.788;8.824;2023-12-14T13:44:33;20.63;;;10.47;;
74612;SDS011;63119;51.788;8.824;2023-12-14T13:46:59;18.30;;;9.90;;
74612;SDS011;63119;51.788;8.824;2023-12-14T13:49:28;15.70;;;8.60;;
74612;SDS011;63119;51.788;8.824;2023-12-14T13:51:53;16.90;;;9.90;;
74612;SDS011;63119;51.788;8.824;2023-12-14T13:54:19;16.40;;;7.95;;
74612;SDS011;63119;51.788;8.824;2023-12-14T13:56:44;11.43;;;6.60;;
74612;SDS011;63119;51.788;8.824;2023-12-14T13:59:09;11.33;;;6.93;;
74612;SDS011;63119;51.788;8.824;2023-12-14T14:01:35;11.77;;;6.38;;
74612;SDS011;63119;51.788;8.824;2023-12-14T14:04:01;13.50;;;7.75;;
74612;SDS011;63119;51.788;8.824;2023-12-14T14:06:26;13.57;;;7.60;;
74612;SDS011;63119;51.788;8.824;2023-12-14T14:08:52;12.33;;;6.73;;
74612;SDS011;63119;51.788;8.824;2023-12-14T14:11:17;13.30;;;6.33;;
74612;SDS011;63119;51.788;8.824;2023-12-14T14:13:42;14.60;;;7.80;;
74612;SDS011;63119;51.788;8.824;2023-12-14T14:16:07;13.37;;;7.60;;
74612;SDS011;63119;51.788;8.824;2023-12-14T14:18:33;23.15;;;10.90;;
74612;SDS011;63119;51.788;8.824;2023-12-14T14:20:58;12.63;;;7.47;;
74612;SDS011;63119;51.788;8.824;2023-12-14T14:23:24;19.70;;;11.77;;
74612;SDS011;63119;51.788;8.824;2023-12-14T14:25:51;14.40;;;8.00;;
74612;SDS011;63119;51.788;8.824;2023-12-14T14:28:19;13.05;;;7.43;;
74612;SDS011;63119;51.788;8.824;2023-12-14T14:30:45;16.20;;;6.55;;
74612;SDS011;63119;51.788;8.824;2023-12-14T14:33:11;12.67;;;8.33;;
74612;SDS011;63119;51.788;8.824;2023-12-14T14:35:38;12.90;;;8.13;;
74612;SDS011;63119;51.788;8.824;2023-12-14T14:38:03;14.80;;;10.00;;
74612;SDS011;63119;51.788;8.824;2023-12-14T14:40:29;15.20;;;9.23;;
74612;SDS011;63119;51.788;8.824;2023-12-14T14:42:54;13.27;;;7.50;;
74612;SDS011;63119;51.788;8.824;2023-12-14T14:45:19;15.47;;;7.60;;
74612;SDS011;63119;51.788;8.824;2023-12-14T14:47:45;11.07;;;6.40;;
74612;SDS011;63119;51.788;8.824;2023-12-14T14:50:10;13.30;;;7.00;;
74612;SDS011;63119;51.788;8.824;2023-12-14T14:52:35;10.40;;;6.03;;
74612;SDS011;63119;51.788;8.824;2023-12-14T14:55:01;12.20;;;6.23;;
74612;SDS011;63119;51.788;8.824;2023-12-14T14:57:26;10.38;;;6.40;;
74612;SDS011;63119;51.788;8.824;2023-12-14T14:59:52;10.52;;;6.82;;
74612;SDS011;63119;51.788;8.824;2023-12-14T15:02:17;11.43;;;7.20;;
74612;SDS011;63119;51.788;8.824;2023-12-14T15:04:43;10.65;;;6.32;;
74612;SDS011;63119;51.788;8.824;2023-12-14T15:07:08;13.70;;;6.10;;